Time;durP1;ratioP1;P1;durP2;ratioP2;P2;SDS_P1;SDS_P2;PMS_P1;PMS_P2;Temp;Humidity;BMP_temperature;BMP_pressure;BME280_temperature;BME280_humidity;BME280_pressure;Samples;Min_cycle;Max_cycle;Signal;HPM_P1;HPM_P2
2023/08/30 00:00:54;;;;;;;3.97;3.00;;;22.40;99.90;;;;;;5025465;28;20460;-48
2023/08/30 00:03:22;;;;;;;3.77;2.33;;;22.30;99.90;;;;;;5027391;28;20470;-48
2023/08/30 00:05:49;;;;;;;4.67;3.00;;;22.40;99.90;;;;;;5023772;28;20461;-47
2023/08/30 00:08:18;;;;;;;2.53;2.17;;;22.40;99.90;;;;;;5027993;28;20465;-48
2023/08/30 00:10:45;;;;;;;3.00;2.37;;;22.30;99.90;;;;;;5030948;28;20486;-55
2023/08/30 00:13:11;;;;;;;2.80;2.47;;;22.40;99.90;;;;;;5025723;28;21039;-52
2023/08/30 00:15:38;;;;;;;2.93;2.70;;;22.30;99.90;;;;;;5020129;28;20953;-52
2023/08/30 00:18:05;;;;;;;5.30;2.57;;;22.30;99.90;;;;;;5023910;28;20809;-49
2023/08/30 00:20:34;;;;;;;3.73;2.20;;;22.30;99.90;;;;;;5025383;28;20477;-49
2023/08/30 00:23:00;;;;;;;3.53;2.60;;;22.40;99.90;;;;;;5025939;28;20475;-48
2023/08/30 00:25:27;;;;;;;3.33;2.40;;;22.30;99.90;;;;;;5022049;28;20462;-49
2023/08/30 00:27:54;;;;;;;3.10;2.80;;;22.30;99.90;;;;;;5023030;28;20817;-49
2023/08/30 00:30:21;;;;;;;2.90;2.43;;;22.30;99.90;;;;;;5026713;28;20481;-53
2023/08/30 00:32:47;;;;;;;5.33;3.30;;;22.30;99.90;;;;;;5025283;28;20461;-49
2023/08/30 00:35:14;;;;;;;3.43;2.40;;;22.30;99.90;;;;;;5026997;28;20461;-51
2023/08/30 00:37:42;;;;;;;3.53;3.03;;;22.30;99.90;;;;;;5027235;28;20462;-49
2023/08/30 00:40:10;;;;;;;4.50;2.57;;;22.30;99.90;;;;;;5027552;28;20457;-48
2023/08/30 00:42:37;;;;;;;2.57;2.13;;;22.30;99.90;;;;;;5027176;28;20467;-47
2023/08/30 00:45:04;;;;;;;2.60;2.40;;;22.30;99.90;;;;;;5029006;28;20462;-53
2023/08/30 00:47:31;;;;;;;2.50;2.30;;;22.30;99.90;;;;;;5028720;28;20458;-49
2023/08/30 00:49:58;;;;;;;2.67;2.27;;;22.30;99.90;;;;;;5026317;28;20935;-52
2023/08/30 00:52:25;;;;;;;3.63;3.23;;;22.30;99.90;;;;;;5028220;28;20466;-51
2023/08/30 00:54:53;;;;;;;2.40;1.97;;;22.30;99.90;;;;;;5028797;28;21159;-50
2023/08/30 00:57:20;;;;;;;4.13;3.30;;;22.20;99.90;;;;;;5027486;28;20862;-49
2023/08/30 00:59:46;;;;;;;2.40;2.20;;;22.30;99.90;;;;;;5028264;28;20507;-49
2023/08/30 01:02:13;;;;;;;3.03;2.43;;;22.20;99.90;;;;;;5027407;28;20813;-48
2023/08/30 01:04:40;;;;;;;2.40;2.20;;;22.30;99.90;;;;;;5025121;28;20472;-50
2023/08/30 01:07:06;;;;;;;3.50;2.60;;;22.30;99.90;;;;;;5022494;28;20473;-47
2023/08/30 01:09:33;;;;;;;2.17;1.97;;;22.20;99.90;;;;;;5028916;28;20501;-48
2023/08/30 01:12:10;;;;;;;2.53;2.33;;;22.30;99.90;;;;;;5028001;28;20548;-49
2023/08/30 01:14:42;;;;;;;3.10;2.60;;;22.20;99.90;;;;;;5028930;28;20484;-48
2023/08/30 01:17:12;;;;;;;2.53;2.33;;;22.30;99.90;;;;;;5027680;28;20539;-49
2023/08/30 01:19:47;;;;;;;2.50;2.20;;;22.30;99.90;;;;;;5026348;28;20469;-49
2023/08/30 01:22:20;;;;;;;3.10;2.30;;;22.30;99.90;;;;;;5023182;28;20450;-51
2023/08/30 01:24:57;;;;;;;2.80;2.60;;;22.30;99.90;;;;;;5025894;28;20462;-48
2023/08/30 01:27:26;;;;;;;3.27;2.33;;;22.20;99.90;;;;;;5025402;28;20458;-53
2023/08/30 01:29:57;;;;;;;5.63;2.97;;;22.30;99.90;;;;;;5023620;28;20505;-48
2023/08/30 01:32:25;;;;;;;4.20;2.50;;;22.20;99.90;;;;;;5024423;28;20847;-48
2023/08/30 01:34:52;;;;;;;2.67;2.00;;;22.20;99.90;;;;;;5025520;28;20449;-50
2023/08/30 01:37:19;;;;;;;2.77;2.20;;;22.20;99.90;;;;;;5026104;28;20461;-47
2023/08/30 01:39:47;;;;;;;3.50;2.10;;;22.20;99.90;;;;;;5025484;28;20473;-49
2023/08/30 01:42:17;;;;;;;2.00;1.80;;;22.30;99.90;;;;;;5028548;28;20489;-48
2023/08/30 01:44:46;;;;;;;3.30;2.70;;;22.20;99.90;;;;;;5030559;28;20461;-47
2023/08/30 01:47:13;;;;;;;2.57;2.30;;;22.20;99.90;;;;;;5029674;28;20465;-51
2023/08/30 01:49:40;;;;;;;3.10;2.80;;;22.20;99.90;;;;;;5031835;28;20473;-48
2023/08/30 01:52:08;;;;;;;3.97;2.30;;;22.20;99.90;;;;;;5027194;28;21063;-48
2023/08/30 01:54:35;;;;;;;3.63;2.40;;;22.20;99.90;;;;;;5027496;28;20597;-55
2023/08/30 01:57:02;;;;;;;2.63;2.17;;;22.20;99.90;;;;;;5027746;28;20962;-50
2023/08/30 01:59:30;;;;;;;2.60;2.40;;;22.20;99.90;;;;;;5031727;28;20461;-50
2023/08/30 02:01:58;;;;;;;2.20;2.00;;;22.20;99.90;;;;;;5031018;28;21013;-48
2023/08/30 02:04:24;;;;;;;2.60;2.37;;;22.20;99.90;;;;;;5028630;28;20503;-52
2023/08/30 02:07:03;;;;;;;2.80;2.43;;;22.20;99.90;;;;;;5028730;28;20454;-48
2023/08/30 02:09:35;;;;;;;2.50;2.30;;;22.20;99.90;;;;;;5027948;28;20474;-52
2023/08/30 02:12:07;;;;;;;2.37;2.03;;;22.20;99.90;;;;;;5026871;28;20467;-47
2023/08/30 02:14:35;;;;;;;2.33;1.97;;;22.20;99.90;;;;;;5028934;28;20488;-48
2023/08/30 02:17:04;;;;;;;2.70;2.23;;;22.20;99.90;;;;;;5026311;28;20886;-48
2023/08/30 02:19:31;;;;;;;3.53;2.60;;;22.20;99.90;;;;;;5031621;28;20978;-53
2023/08/30 02:21:57;;;;;;;2.60;1.97;;;22.20;99.90;;;;;;5029134;28;20914;-49
2023/08/30 02:24:24;;;;;;;3.23;2.50;;;22.20;99.90;;;;;;5026575;28;20451;-53
2023/08/30 02:26:51;;;;;;;2.30;2.10;;;22.20;99.90;;;;;;5027361;28;20458;-48
2023/08/30 02:29:18;;;;;;;2.83;2.40;;;22.20;99.90;;;;;;5034647;28;20460;-48
2023/08/30 02:31:44;;;;;;;2.30;1.77;;;22.20;99.90;;;;;;5025729;28;21072;-49
2023/08/30 02:34:12;;;;;;;2.20;2.00;;;22.20;99.90;;;;;;5023912;28;20830;-49
2023/08/30 02:36:39;;;;;;;2.07;1.87;;;22.20;99.90;;;;;;5020347;28;20461;-51
2023/08/30 02:39:06;;;;;;;2.40;2.20;;;22.20;99.90;;;;;;5025324;28;20461;-47
2023/08/30 02:41:32;;;;;;;2.27;2.07;;;22.20;99.90;;;;;;5026366;28;20466;-50
2023/08/30 02:43:59;;;;;;;2.57;1.90;;;22.20;99.90;;;;;;5032731;28;20468;-48
2023/08/30 02:46:26;;;;;;;2.20;1.97;;;22.20;99.90;;;;;;5030138;28;20462;-49
2023/08/30 02:48:52;;;;;;;2.17;2.07;;;22.20;99.90;;;;;;5025594;28;20460;-49
2023/08/30 02:51:20;;;;;;;3.40;2.10;;;22.10;99.90;;;;;;5031114;28;20481;-50
2023/08/30 02:53:47;;;;;;;3.13;2.17;;;22.20;99.90;;;;;;5034934;28;20457;-48
2023/08/30 02:56:14;;;;;;;2.17;1.97;;;22.10;99.90;;;;;;5028030;28;20454;-50
2023/08/30 02:58:41;;;;;;;1.67;1.57;;;22.20;99.90;;;;;;5033172;28;20450;-48
2023/08/30 03:01:07;;;;;;;2.17;1.97;;;22.20;99.90;;;;;;5033018;28;20473;-48
2023/08/30 03:03:34;;;;;;;2.57;2.20;;;22.20;99.90;;;;;;5030887;28;20466;-51
2023/08/30 03:06:02;;;;;;;2.43;2.07;;;22.20;99.90;;;;;;5031306;28;20981;-47
2023/08/30 03:08:31;;;;;;;2.57;2.13;;;22.20;99.90;;;;;;5030599;28;20470;-47
2023/08/30 03:11:07;;;;;;;2.00;1.83;;;22.10;99.90;;;;;;5030048;28;20501;-50
2023/08/30 03:13:34;;;;;;;2.53;2.07;;;22.20;99.90;;;;;;5029520;28;20456;-47
2023/08/30 03:16:01;;;;;;;1.80;1.60;;;22.10;99.90;;;;;;5027316;28;20462;-50
2023/08/30 03:18:27;;;;;;;2.20;2.00;;;22.10;99.90;;;;;;5026243;28;20449;-51
2023/08/30 03:21:01;;;;;;;2.00;1.80;;;22.10;99.90;;;;;;5028047;28;20851;-53
2023/08/30 03:23:27;;;;;;;2.37;1.90;;;22.10;99.90;;;;;;5033047;28;20540;-53
2023/08/30 03:25:55;;;;;;;2.60;2.40;;;22.10;99.90;;;;;;5030692;28;20948;-48
2023/08/30 03:28:23;;;;;;;2.17;1.90;;;22.10;99.90;;;;;;5031558;28;20461;-48
2023/08/30 03:30:50;;;;;;;2.70;2.13;;;22.10;99.90;;;;;;5030152;28;20486;-48
2023/08/30 03:33:16;;;;;;;3.40;2.13;;;22.10;99.90;;;;;;5031661;28;20468;-48
2023/08/30 03:35:43;;;;;;;2.27;1.97;;;22.10;99.90;;;;;;5027019;28;21078;-51
2023/08/30 03:38:10;;;;;;;2.73;1.90;;;22.10;99.90;;;;;;5025569;28;20462;-49
2023/08/30 03:40:39;;;;;;;4.20;2.37;;;22.10;99.90;;;;;;5027104;28;20488;-48
2023/08/30 03:43:07;;;;;;;2.23;1.93;;;22.10;99.90;;;;;;5022320;28;20457;-53
2023/08/30 03:45:36;;;;;;;1.93;1.83;;;22.10;99.90;;;;;;5024514;28;21012;-51
2023/08/30 03:48:03;;;;;;;2.00;1.67;;;22.10;99.90;;;;;;5024055;28;21131;-47
2023/08/30 03:50:30;;;;;;;2.03;1.83;;;22.10;99.90;;;;;;5025716;28;20469;-49
2023/08/30 03:52:56;;;;;;;2.30;2.10;;;22.10;99.90;;;;;;5028011;28;20473;-49
2023/08/30 03:55:23;;;;;;;2.20;2.00;;;22.10;99.90;;;;;;5026429;28;20469;-51
2023/08/30 03:57:50;;;;;;;2.70;2.30;;;22.10;99.90;;;;;;5028689;28;20460;-51
2023/08/30 04:00:18;;;;;;;2.13;1.93;;;22.10;99.90;;;;;;5022484;28;20507;-50
2023/08/30 04:02:45;;;;;;;2.13;1.93;;;22.10;99.90;;;;;;5029953;28;20472;-50
2023/08/30 04:05:12;;;;;;;2.47;2.27;;;22.10;99.90;;;;;;5028272;28;20457;-48
2023/08/30 04:07:38;;;;;;;2.07;1.80;;;22.10;99.90;;;;;;5027951;28;20469;-48
2023/08/30 04:10:07;;;;;;;2.30;2.10;;;22.10;99.90;;;;;;5030496;28;21091;-49
2023/08/30 04:12:34;;;;;;;2.30;2.10;;;22.00;99.90;;;;;;5030474;28;20809;-50
2023/08/30 04:15:01;;;;;;;3.00;2.00;;;22.10;99.90;;;;;;5026810;28;20484;-51
2023/08/30 04:17:29;;;;;;;2.00;1.80;;;22.00;99.90;;;;;;5024870;28;20460;-53
2023/08/30 04:19:56;;;;;;;2.00;1.80;;;22.10;99.90;;;;;;5023634;28;20458;-52
2023/08/30 04:22:23;;;;;;;3.03;2.13;;;22.10;99.90;;;;;;5031098;28;20462;-51
2023/08/30 04:24:50;;;;;;;2.83;2.30;;;22.00;99.90;;;;;;5028515;28;21012;-48
2023/08/30 04:27:17;;;;;;;2.27;2.03;;;22.10;99.90;;;;;;5027746;28;20458;-48
2023/08/30 04:29:45;;;;;;;2.03;1.83;;;22.00;99.90;;;;;;5029824;28;20462;-52
2023/08/30 04:32:11;;;;;;;2.20;1.87;;;22.00;99.90;;;;;;5033687;28;20997;-52
2023/08/30 04:34:39;;;;;;;2.03;1.40;;;22.00;99.90;;;;;;5025231;28;20457;-50
2023/08/30 04:37:06;;;;;;;2.07;1.57;;;22.00;99.90;;;;;;5033858;28;21078;-50
2023/08/30 04:39:33;;;;;;;2.93;2.20;;;22.00;99.90;;;;;;5033585;28;20853;-51
2023/08/30 04:42:00;;;;;;;1.90;1.67;;;22.00;99.90;;;;;;5031950;28;20849;-48
2023/08/30 04:44:27;;;;;;;1.77;1.67;;;22.00;99.90;;;;;;5035305;28;20582;-49
2023/08/30 04:46:54;;;;;;;3.60;2.30;;;22.00;99.90;;;;;;5034929;28;20798;-49
2023/08/30 04:49:21;;;;;;;2.13;1.73;;;22.00;99.90;;;;;;5025607;28;20464;-50
2023/08/30 04:51:49;;;;;;;2.17;1.97;;;22.00;99.90;;;;;;5027572;28;20465;-49
2023/08/30 04:54:16;;;;;;;1.97;1.70;;;22.10;99.90;;;;;;5026714;28;21013;-49
2023/08/30 04:56:43;;;;;;;2.23;1.70;;;22.00;99.90;;;;;;5021222;28;21003;-48
2023/08/30 04:59:09;;;;;;;1.63;1.50;;;22.00;99.90;;;;;;5031637;28;20458;-48
2023/08/30 05:01:37;;;;;;;2.27;2.07;;;22.00;99.90;;;;;;5027990;28;20971;-50
2023/08/30 05:04:05;;;;;;;1.90;1.80;;;22.00;99.90;;;;;;5030281;28;20477;-52
2023/08/30 05:06:32;;;;;;;2.07;1.80;;;22.00;99.90;;;;;;5026776;28;20459;-48
2023/08/30 05:09:00;;;;;;;2.67;2.47;;;22.00;99.90;;;;;;5030979;28;20466;-51
2023/08/30 05:11:27;;;;;;;2.13;1.93;;;22.00;99.90;;;;;;5025875;28;20491;-52
2023/08/30 05:13:53;;;;;;;2.27;2.00;;;22.00;99.90;;;;;;5028126;28;20535;-48
2023/08/30 05:16:20;;;;;;;2.03;1.83;;;22.00;99.90;;;;;;5029014;28;20753;-48
2023/08/30 05:18:48;;;;;;;1.83;1.53;;;22.00;99.90;;;;;;5028127;28;21062;-51
2023/08/30 05:21:15;;;;;;;2.40;2.10;;;22.00;99.90;;;;;;5029292;28;20466;-51
2023/08/30 05:23:42;;;;;;;1.90;1.70;;;22.00;99.90;;;;;;5030401;28;20927;-53
2023/08/30 05:26:12;;;;;;;2.27;1.70;;;22.00;99.90;;;;;;5032882;28;20462;-55
2023/08/30 05:28:39;;;;;;;1.40;1.30;;;22.00;99.90;;;;;;5035278;28;20512;-53
2023/08/30 05:31:05;;;;;;;1.60;1.50;;;22.00;99.90;;;;;;5035814;28;20476;-54
2023/08/30 05:33:32;;;;;;;1.70;1.60;;;22.00;99.90;;;;;;5033724;28;20465;-52
2023/08/30 05:35:59;;;;;;;2.80;2.10;;;22.00;99.90;;;;;;5028484;28;20446;-49
2023/08/30 05:38:25;;;;;;;1.90;1.80;;;21.90;99.90;;;;;;5028043;28;20809;-49
2023/08/30 05:40:52;;;;;;;2.23;2.03;;;21.90;99.90;;;;;;5027569;28;20458;-50
2023/08/30 05:43:20;;;;;;;2.20;1.77;;;22.00;99.90;;;;;;5026927;28;20470;-48
2023/08/30 05:45:48;;;;;;;1.67;1.57;;;22.00;99.90;;;;;;5032555;28;20466;-49
2023/08/30 05:48:14;;;;;;;1.40;1.30;;;22.00;99.90;;;;;;5030789;28;21223;-53
2023/08/30 05:50:41;;;;;;;1.90;1.80;;;22.00;99.90;;;;;;5025722;28;20482;-49
2023/08/30 05:53:08;;;;;;;1.50;1.40;;;22.00;99.90;;;;;;5026757;28;20470;-48
2023/08/30 05:55:35;;;;;;;2.23;2.03;;;22.00;99.90;;;;;;5026646;28;21265;-50
2023/08/30 05:58:01;;;;;;;1.60;1.50;;;22.00;99.90;;;;;;5026262;28;20466;-51
2023/08/30 06:00:30;;;;;;;1.50;1.40;;;22.00;99.90;;;;;;5025896;28;20464;-48
2023/08/30 06:02:56;;;;;;;3.80;1.87;;;21.90;99.90;;;;;;5027338;28;20466;-54
2023/08/30 06:05:23;;;;;;;1.83;1.73;;;22.00;99.90;;;;;;5026245;28;21965;-48
2023/08/30 06:07:50;;;;;;;1.87;1.57;;;22.00;99.90;;;;;;5029877;28;20835;-52
2023/08/30 06:10:16;;;;;;;1.70;1.40;;;22.00;99.90;;;;;;5027527;28;20467;-51
2023/08/30 06:12:43;;;;;;;1.83;1.73;;;21.90;99.90;;;;;;5030107;28;21011;-50
2023/08/30 06:15:10;;;;;;;2.20;2.00;;;21.90;99.90;;;;;;5029145;28;20488;-52
2023/08/30 06:17:38;;;;;;;2.60;1.93;;;21.90;99.90;;;;;;5030469;28;20949;-52
2023/08/30 06:20:06;;;;;;;1.80;1.47;;;21.90;99.90;;;;;;5028130;28;20453;-52
2023/08/30 06:22:33;;;;;;;1.90;1.80;;;21.90;99.90;;;;;;5033631;28;20792;-49
2023/08/30 06:24:59;;;;;;;1.80;1.70;;;22.00;99.90;;;;;;5032352;28;20465;-52
2023/08/30 06:27:26;;;;;;;1.57;1.47;;;21.90;99.90;;;;;;5029819;28;20460;-49
2023/08/30 06:29:53;;;;;;;1.90;1.70;;;21.90;99.90;;;;;;5023276;28;20473;-53
2023/08/30 06:32:20;;;;;;;2.20;2.00;;;21.90;99.90;;;;;;5031501;28;20489;-48
2023/08/30 06:34:48;;;;;;;1.50;1.40;;;21.90;99.90;;;;;;5031918;28;20539;-47
2023/08/30 06:37:14;;;;;;;1.60;1.33;;;22.00;99.90;;;;;;5030673;28;20453;-51
2023/08/30 06:39:41;;;;;;;2.03;1.83;;;21.90;99.90;;;;;;5032216;28;20816;-55
2023/08/30 06:42:08;;;;;;;1.90;1.77;;;22.00;99.90;;;;;;5030867;28;20472;-51
2023/08/30 06:44:35;;;;;;;2.00;1.80;;;21.90;99.90;;;;;;5032726;28;20474;-49
2023/08/30 06:47:01;;;;;;;1.97;1.87;;;21.90;99.90;;;;;;5027398;28;20920;-48
2023/08/30 06:49:31;;;;;;;1.70;1.47;;;22.00;99.90;;;;;;5024983;28;20466;-48
2023/08/30 06:52:01;;;;;;;1.57;1.40;;;21.90;99.90;;;;;;5026529;28;20985;-50
2023/08/30 06:54:28;;;;;;;2.17;1.90;;;22.00;99.90;;;;;;5028996;28;20462;-50
2023/08/30 06:56:59;;;;;;;1.93;1.60;;;21.90;99.90;;;;;;5027501;28;20473;-50
2023/08/30 06:59:26;;;;;;;1.90;1.40;;;22.00;99.90;;;;;;5026821;28;20535;-48
2023/08/30 07:01:52;;;;;;;1.77;1.33;;;22.00;99.90;;;;;;5031686;28;20454;-53
2023/08/30 07:04:19;;;;;;;1.93;1.50;;;22.00;99.90;;;;;;5030493;28;20461;-54
2023/08/30 07:06:46;;;;;;;1.87;1.57;;;22.00;99.90;;;;;;5037164;28;20787;-50
2023/08/30 07:09:14;;;;;;;2.00;1.67;;;22.00;99.90;;;;;;5035860;28;20462;-51
2023/08/30 07:11:44;;;;;;;1.90;1.70;;;22.00;99.90;;;;;;5031635;28;21002;-48
2023/08/30 07:14:12;;;;;;;2.23;1.70;;;22.00;99.90;;;;;;5032587;28;20555;-48
2023/08/30 07:16:38;;;;;;;3.63;1.70;;;22.00;99.90;;;;;;5029452;28;20837;-47
2023/08/30 07:19:06;;;;;;;6.13;2.20;;;22.00;99.90;;;;;;5034883;28;20468;-47
2023/08/30 07:21:32;;;;;;;2.03;1.80;;;22.00;99.90;;;;;;5029014;28;20465;-49
2023/08/30 07:23:59;;;;;;;6.07;1.97;;;22.00;99.90;;;;;;5025988;28;20486;-49
2023/08/30 07:26:27;;;;;;;2.07;1.87;;;22.00;99.90;;;;;;5027961;28;20461;-53
2023/08/30 07:28:54;;;;;;;3.50;1.97;;;22.00;99.90;;;;;;5025213;28;20466;-51
2023/08/30 07:31:21;;;;;;;2.20;2.00;;;22.00;99.90;;;;;;5026132;28;20485;-50
2023/08/30 07:33:48;;;;;;;6.53;2.00;;;22.00;99.90;;;;;;5024662;28;20536;-51
2023/08/30 07:36:14;;;;;;;4.87;2.37;;;22.00;99.90;;;;;;5023240;28;20454;-50
2023/08/30 07:38:41;;;;;;;3.00;2.80;;;22.00;99.90;;;;;;5026724;28;20453;-49
2023/08/30 07:41:08;;;;;;;2.13;1.93;;;22.00;99.90;;;;;;5022454;28;20462;-53
2023/08/30 07:43:36;;;;;;;6.17;2.33;;;22.10;99.90;;;;;;5030670;28;20936;-53
2023/08/30 07:46:03;;;;;;;2.90;2.20;;;22.00;99.90;;;;;;5025120;28;20472;-56
2023/08/30 07:48:29;;;;;;;3.00;2.70;;;22.10;99.90;;;;;;5022554;28;20501;-50
2023/08/30 07:50:56;;;;;;;3.97;2.37;;;22.10;99.90;;;;;;5031753;28;20497;-52
2023/08/30 07:53:23;;;;;;;3.77;2.33;;;22.10;99.90;;;;;;5025751;28;20485;-48
2023/08/30 07:55:50;;;;;;;2.90;2.50;;;22.10;99.90;;;;;;5020667;28;20897;-50
2023/08/30 07:58:18;;;;;;;3.43;2.23;;;22.10;99.90;;;;;;5022670;28;20486;-48
2023/08/30 08:00:46;;;;;;;4.47;2.27;;;22.10;99.90;;;;;;5030476;28;20473;-50
2023/08/30 08:03:13;;;;;;;2.77;2.57;;;22.10;99.90;;;;;;5027102;28;20481;-48
2023/08/30 08:05:39;;;;;;;4.53;2.70;;;22.10;99.90;;;;;;5028357;28;20485;-48
2023/08/30 08:08:06;;;;;;;2.77;2.53;;;22.10;99.90;;;;;;5029893;28;20822;-54
2023/08/30 08:10:34;;;;;;;3.27;2.97;;;22.10;99.90;;;;;;5028044;28;20462;-51
2023/08/30 08:13:01;;;;;;;3.03;2.73;;;22.10;99.90;;;;;;5028870;28;20562;-52
2023/08/30 08:15:29;;;;;;;3.53;3.03;;;22.10;99.90;;;;;;5027553;28;20462;-50
2023/08/30 08:17:57;;;;;;;4.20;3.23;;;22.10;99.90;;;;;;5028883;28;20462;-51
2023/08/30 08:20:23;;;;;;;5.07;3.23;;;22.10;99.90;;;;;;5027289;28;20460;-52
2023/08/30 08:22:50;;;;;;;4.00;3.10;;;22.10;99.90;;;;;;5031928;28;20479;-51
2023/08/30 08:25:17;;;;;;;4.17;3.77;;;22.10;99.90;;;;;;5025678;28;21069;-53
2023/08/30 08:27:44;;;;;;;3.70;2.90;;;22.10;99.90;;;;;;5026193;28;20478;-48
2023/08/30 08:30:11;;;;;;;3.80;2.63;;;22.10;99.90;;;;;;5027076;28;20460;-52
2023/08/30 08:32:38;;;;;;;4.57;3.30;;;22.10;99.90;;;;;;5029011;28;20679;-54
2023/08/30 08:35:07;;;;;;;4.40;3.50;;;22.10;99.90;;;;;;5029847;28;20458;-50
2023/08/30 08:37:33;;;;;;;4.70;3.40;;;22.10;99.90;;;;;;5026034;28;20458;-54
2023/08/30 08:40:05;;;;;;;6.20;2.83;;;22.10;99.90;;;;;;5028942;28;20493;-52
2023/08/30 08:42:32;;;;;;;4.87;3.20;;;22.10;99.90;;;;;;5030489;28;21065;-47
2023/08/30 08:45:00;;;;;;;7.17;3.30;;;22.10;99.90;;;;;;5028684;28;20473;-47
2023/08/30 08:47:27;;;;;;;3.60;2.80;;;22.10;99.90;;;;;;5030572;28;20472;-51
2023/08/30 08:49:55;;;;;;;7.47;3.30;;;22.10;99.90;;;;;;5025450;28;21000;-48
2023/08/30 08:52:24;;;;;;;4.23;2.70;;;22.10;99.90;;;;;;5027962;28;20484;-51
2023/08/30 08:54:52;;;;;;;2.50;2.30;;;22.10;99.90;;;;;;5032798;28;20537;-49
2023/08/30 08:57:20;;;;;;;4.63;3.00;;;22.10;99.90;;;;;;5031813;28;20461;-56
2023/08/30 08:59:46;;;;;;;13.93;3.30;;;22.10;99.90;;;;;;5029990;28;20461;-51
2023/08/30 09:02:15;;;;;;;2.50;2.30;;;22.10;99.90;;;;;;5033537;28;20465;-54
2023/08/30 09:04:42;;;;;;;4.07;2.77;;;22.10;99.90;;;;;;5033178;28;20470;-50
2023/08/30 09:07:09;;;;;;;2.93;2.63;;;22.10;99.90;;;;;;5028760;28;20449;-52
2023/08/30 09:09:37;;;;;;;2.83;2.63;;;22.10;99.90;;;;;;5031813;28;20477;-49
2023/08/30 09:12:04;;;;;;;3.13;2.93;;;22.10;99.90;;;;;;5030312;28;20824;-52
2023/08/30 09:14:31;;;;;;;5.97;3.63;;;22.10;99.90;;;;;;5029256;28;20458;-53
2023/08/30 09:17:00;;;;;;;4.07;2.80;;;22.10;99.90;;;;;;5029020;28;20466;-48
2023/08/30 09:19:27;;;;;;;3.20;2.77;;;22.10;99.90;;;;;;5030472;28;20471;-51
2023/08/30 09:21:54;;;;;;;2.50;2.30;;;22.10;99.90;;;;;;5029839;28;20457;-52
2023/08/30 09:24:20;;;;;;;5.13;2.70;;;22.10;99.90;;;;;;5031053;28;20458;-51
2023/08/30 09:26:50;;;;;;;3.20;2.90;;;22.10;99.90;;;;;;5033599;28;20464;-55
2023/08/30 09:29:18;;;;;;;3.90;2.30;;;22.10;99.90;;;;;;5033631;28;20465;-53
2023/08/30 09:31:45;;;;;;;4.30;2.97;;;22.10;99.90;;;;;;5031897;28;20976;-51
2023/08/30 09:34:12;;;;;;;3.83;3.00;;;22.10;99.90;;;;;;5031349;28;20461;-50
2023/08/30 09:36:40;;;;;;;3.80;2.90;;;22.10;99.90;;;;;;5034650;28;20809;-55
2023/08/30 09:39:09;;;;;;;3.37;2.50;;;22.10;99.90;;;;;;5030459;28;20449;-54
2023/08/30 09:41:35;;;;;;;3.50;2.80;;;22.10;99.90;;;;;;5034150;28;20464;-49
2023/08/30 09:44:10;;;;;;;2.50;2.03;;;22.10;99.90;;;;;;5035189;28;20456;-55
2023/08/30 09:46:42;;;;;;;3.00;2.70;;;22.10;99.90;;;;;;5034328;28;20461;-55
2023/08/30 09:49:09;;;;;;;3.23;2.30;;;22.10;99.90;;;;;;5034468;28;20464;-55
2023/08/30 09:51:38;;;;;;;3.13;2.47;;;22.10;99.90;;;;;;5035152;28;20820;-51
2023/08/30 09:54:06;;;;;;;7.50;2.70;;;22.10;99.90;;;;;;5032335;28;20816;-51
2023/08/30 09:56:35;;;;;;;3.10;2.90;;;22.10;99.90;;;;;;5027319;28;20969;-49
2023/08/30 09:59:04;;;;;;;4.30;3.90;;;22.10;99.90;;;;;;5034118;28;20499;-50
2023/08/30 10:01:32;;;;;;;4.00;3.40;;;22.10;99.90;;;;;;5030119;28;20466;-54
2023/08/30 10:03:59;;;;;;;4.40;2.90;;;22.10;99.90;;;;;;5028347;28;20949;-50
2023/08/30 10:06:26;;;;;;;4.87;2.50;;;22.10;99.90;;;;;;5035765;28;20458;-49
2023/08/30 10:08:55;;;;;;;3.97;3.63;;;22.10;99.90;;;;;;5035059;28;20776;-52
2023/08/30 10:11:22;;;;;;;4.10;2.53;;;22.10;99.90;;;;;;5033710;28;20465;-53
2023/08/30 10:13:50;;;;;;;2.90;2.70;;;22.00;99.90;;;;;;5035291;28;20688;-57
2023/08/30 10:16:23;;;;;;;3.90;3.60;;;22.00;99.90;;;;;;5033214;28;20461;-56
2023/08/30 10:18:55;;;;;;;5.30;3.00;;;22.00;99.90;;;;;;5030277;28;20956;-54
2023/08/30 10:21:22;;;;;;;6.10;3.77;;;22.00;99.90;;;;;;5032979;28;20480;-50
2023/08/30 10:23:55;;;;;;;5.87;3.30;;;22.00;99.80;;;;;;5036011;28;20842;-49
2023/08/30 10:26:24;;;;;;;4.20;3.50;;;21.90;99.40;;;;;;5031526;28;21017;-49
2023/08/30 10:28:53;;;;;;;7.47;3.43;;;21.90;99.10;;;;;;5033259;28;20453;-55
2023/08/30 10:31:20;;;;;;;4.37;2.87;;;21.90;99.10;;;;;;5035385;28;20766;-51
2023/08/30 10:33:53;;;;;;;4.23;3.20;;;21.80;99.20;;;;;;5036274;28;20767;-50
2023/08/30 10:36:24;;;;;;;4.97;2.73;;;21.80;99.40;;;;;;5036310;28;20467;-52
2023/08/30 10:38:51;;;;;;;4.40;3.17;;;21.80;99.60;;;;;;5037531;28;20469;-55
2023/08/30 10:41:23;;;;;;;4.30;2.97;;;21.80;99.70;;;;;;5030316;28;21264;-52
2023/08/30 10:43:52;;;;;;;3.93;2.50;;;21.80;99.80;;;;;;5031152;28;20461;-50
2023/08/30 10:46:31;;;;;;;3.20;2.27;;;21.80;99.80;;;;;;5035401;28;20454;-54
2023/08/30 10:49:10;;;;;;;4.03;2.77;;;21.80;99.80;;;;;;5035055;28;20479;-51
2023/08/30 10:51:38;;;;;;;3.33;2.70;;;21.80;99.80;;;;;;5033341;28;20818;-54
2023/08/30 10:54:11;;;;;;;3.63;2.80;;;21.80;99.60;;;;;;5037413;28;20496;-50
2023/08/30 10:56:47;;;;;;;3.37;2.63;;;21.80;99.60;;;;;;5033433;28;20466;-52
2023/08/30 10:59:18;;;;;;;2.80;2.60;;;21.80;99.70;;;;;;5035473;28;20514;-51
2023/08/30 11:01:46;;;;;;;3.40;2.50;;;21.80;99.60;;;;;;5035528;28;20856;-49
2023/08/30 11:04:16;;;;;;;5.00;2.80;;;21.90;99.70;;;;;;5034433;28;20465;-51
2023/08/30 11:06:45;;;;;;;3.07;2.77;;;21.80;99.70;;;;;;5032212;28;20500;-53
2023/08/30 11:09:14;;;;;;;5.80;2.70;;;21.80;99.80;;;;;;5024830;28;20494;-52
2023/08/30 11:11:41;;;;;;;4.50;3.17;;;21.80;99.80;;;;;;5023589;28;20709;-49
2023/08/30 11:14:08;;;;;;;3.10;2.80;;;21.80;99.80;;;;;;5024422;28;20485;-49
2023/08/30 11:16:35;;;;;;;3.63;3.10;;;21.80;99.90;;;;;;5026745;28;20546;-55
2023/08/30 11:19:02;;;;;;;6.07;3.10;;;21.80;99.90;;;;;;5033614;28;20457;-52
2023/08/30 11:21:32;;;;;;;6.10;3.10;;;21.80;99.90;;;;;;5031146;28;20471;-57
2023/08/30 11:23:59;;;;;;;3.10;2.87;;;21.90;99.90;;;;;;5032140;28;20802;-51
2023/08/30 11:26:26;;;;;;;4.17;2.83;;;21.80;99.90;;;;;;5021534;28;20932;-47
2023/08/30 11:28:53;;;;;;;3.20;2.73;;;21.90;99.90;;;;;;5024319;28;20466;-50
2023/08/30 11:31:22;;;;;;;3.23;2.93;;;21.90;99.90;;;;;;5028503;28;21716;-51
2023/08/30 11:33:52;;;;;;;3.40;3.10;;;21.90;99.90;;;;;;5027354;28;20568;-52
2023/08/30 11:36:20;;;;;;;3.60;2.40;;;21.90;99.90;;;;;;5029237;28;20446;-55
2023/08/30 11:38:49;;;;;;;3.57;2.87;;;21.90;99.90;;;;;;5028250;28;20465;-50
2023/08/30 11:41:16;;;;;;;4.70;3.20;;;21.90;99.90;;;;;;5024784;28;20458;-52
2023/08/30 11:43:43;;;;;;;3.23;2.90;;;21.80;99.90;;;;;;5026017;28;20477;-56
2023/08/30 11:46:12;;;;;;;7.13;3.13;;;21.90;99.90;;;;;;5025491;28;20461;-53
2023/08/30 11:48:39;;;;;;;6.83;2.50;;;21.90;99.90;;;;;;5027591;28;20473;-51
2023/08/30 11:51:06;;;;;;;7.40;3.00;;;21.90;99.90;;;;;;5023586;28;20453;-49
2023/08/30 11:53:34;;;;;;;3.37;3.07;;;21.90;99.90;;;;;;5027260;28;20485;-52
2023/08/30 11:56:02;;;;;;;4.27;2.93;;;21.90;99.90;;;;;;5020084;28;20978;-50
2023/08/30 11:58:33;;;;;;;4.27;3.40;;;21.90;99.90;;;;;;5026099;28;20940;-54
2023/08/30 12:01:00;;;;;;;6.43;3.03;;;21.80;99.90;;;;;;5030880;28;20454;-50
2023/08/30 12:03:28;;;;;;;3.20;2.90;;;21.90;99.90;;;;;;5029615;28;20466;-53
2023/08/30 12:05:55;;;;;;;3.47;3.07;;;21.90;99.90;;;;;;5020783;28;20460;-50
2023/08/30 12:08:24;;;;;;;4.37;2.90;;;21.90;99.90;;;;;;5025074;28;21186;-48
2023/08/30 12:10:51;;;;;;;3.77;3.40;;;21.90;99.90;;;;;;5025111;28;20961;-55
2023/08/30 12:13:23;;;;;;;3.40;2.93;;;21.90;99.90;;;;;;5023292;28;20475;-57
2023/08/30 12:15:50;;;;;;;3.50;3.20;;;21.90;99.90;;;;;;5032773;28;20469;-49
2023/08/30 12:18:17;;;;;;;3.60;3.00;;;21.90;99.90;;;;;;5032894;28;20454;-49
2023/08/30 12:20:54;;;;;;;3.10;2.80;;;21.90;99.90;;;;;;5028297;28;20464;-49
2023/08/30 12:23:22;;;;;;;2.90;2.60;;;21.90;99.90;;;;;;5028375;28;20453;-58
2023/08/30 12:25:58;;;;;;;4.23;3.20;;;21.90;99.90;;;;;;5026682;28;20500;-54
2023/08/30 12:28:26;;;;;;;3.83;2.93;;;21.90;99.90;;;;;;5024153;28;20532;-53
2023/08/30 12:30:53;;;;;;;4.30;3.10;;;21.90;99.90;;;;;;5021429;28;20748;-51
2023/08/30 12:33:20;;;;;;;3.33;3.00;;;21.90;99.90;;;;;;5029327;28;20795;-53
2023/08/30 12:35:47;;;;;;;4.23;3.10;;;21.90;99.90;;;;;;5032140;28;20613;-56
2023/08/30 12:38:17;;;;;;;3.30;2.97;;;21.80;99.90;;;;;;5031174;28;20468;-59
2023/08/30 12:40:44;;;;;;;4.30;3.47;;;21.90;99.90;;;;;;5029595;28;20818;-55
2023/08/30 12:43:11;;;;;;;3.57;3.27;;;21.90;99.90;;;;;;5028905;28;20473;-55
2023/08/30 12:45:40;;;;;;;4.03;3.63;;;21.90;99.90;;;;;;5030177;28;20486;-53
2023/08/30 12:48:07;;;;;;;4.30;3.00;;;21.90;99.90;;;;;;5032274;28;20963;-57
2023/08/30 12:50:34;;;;;;;4.10;3.60;;;21.90;99.90;;;;;;5026260;28;20458;-57